createdAt,value
2022-08-11T00:02:36.422Z,14.30
2022-08-11T00:05:09.987Z,14.22
2022-08-11T00:07:45.217Z,14.15
2022-08-11T00:10:18.119Z,14.11
2022-08-11T00:12:53.480Z,14.07
2022-08-11T00:15:23.066Z,14.05
2022-08-11T00:17:58.688Z,14.01
2022-08-11T00:20:32.703Z,13.92
2022-08-11T00:23:06.095Z,13.92
2022-08-11T00:25:41.597Z,13.90
2022-08-11T00:28:27.736Z,13.88
2022-08-11T00:30:59.433Z,13.84
2022-08-11T00:33:44.105Z,13.79
2022-08-11T00:36:18.910Z,13.70
2022-08-11T00:38:54.115Z,13.66
2022-08-11T00:41:33.908Z,13.61
2022-08-11T00:44:24.835Z,13.56
2022-08-11T00:47:03.502Z,13.53
2022-08-11T00:49:49.019Z,13.51
2022-08-11T00:52:34.617Z,13.48
2022-08-11T00:55:47.273Z,13.37
2022-08-11T00:58:58.996Z,13.34
2022-08-11T01:01:38.828Z,13.25
2022-08-11T01:04:53.695Z,13.23
2022-08-11T01:08:15.576Z,13.23
2022-08-11T01:11:00.532Z,13.17
2022-08-11T01:13:56.998Z,13.13
2022-08-11T01:17:05.608Z,13.15
2022-08-11T01:20:39.451Z,13.11
2022-08-11T01:23:36.277Z,13.08
2022-08-11T01:27:19.000Z,13.06
2022-08-11T01:30:19.725Z,13.03
2022-08-11T01:33:20.150Z,13.06
2022-08-11T01:36:28.175Z,12.99
2022-08-11T01:39:17.867Z,12.94
2022-08-11T01:42:24.497Z,12.86
2022-08-11T01:45:17.909Z,12.77
2022-08-11T01:47:54.498Z,12.71
2022-08-11T01:50:32.592Z,12.62
2022-08-11T01:53:11.975Z,12.55
2022-08-11T01:55:51.060Z,12.48
2022-08-11T01:58:43.621Z,12.44
2022-08-11T02:01:25.663Z,12.38
2022-08-11T02:03:59.759Z,12.36
2022-08-11T02:06:56.371Z,12.34
2022-08-11T02:09:49.376Z,12.28
2022-08-11T02:12:33.666Z,12.24
2022-08-11T02:15:08.760Z,12.18
2022-08-11T02:17:55.440Z,12.18
2022-08-11T02:20:46.459Z,12.19
2022-08-11T02:24:05.955Z,12.13
2022-08-11T02:26:41.156Z,12.11
2022-08-11T02:29:18.161Z,12.06
2022-08-11T02:32:28.614Z,12.03
2022-08-11T02:35:09.712Z,11.97
2022-08-11T02:37:51.856Z,11.91
2022-08-11T02:40:32.433Z,11.92
2022-08-11T02:43:12.764Z,11.93
2022-08-11T02:45:55.024Z,11.98
2022-08-11T02:48:55.254Z,12.00
2022-08-11T02:51:41.797Z,11.90
2022-08-11T02:54:18.749Z,11.88
2022-08-11T02:56:54.251Z,11.86
2022-08-11T02:59:53.726Z,11.77
2022-08-11T03:02:49.922Z,11.74
2022-08-11T03:05:35.155Z,11.70
2022-08-11T03:08:20.270Z,11.74
2022-08-11T03:11:10.523Z,11.78
2022-08-11T03:14:02.499Z,11.80
2022-08-11T03:16:48.531Z,11.81
2022-08-11T03:19:26.926Z,11.75
2022-08-11T03:22:06.889Z,11.68
2022-08-11T03:24:48.226Z,11.63
2022-08-11T03:27:30.555Z,11.63
2022-08-11T03:30:09.547Z,11.59
2022-08-11T03:33:12.454Z,11.70
2022-08-11T03:35:45.594Z,11.82
2022-08-11T03:38:17.804Z,11.90
2022-08-11T03:42:01.418Z,11.90
2022-08-11T03:44:12.891Z,11.86
2022-08-11T03:47:08.166Z,11.91
2022-08-11T03:49:53.990Z,11.92
2022-08-11T03:52:29.873Z,11.84
2022-08-11T03:55:11.627Z,11.80
2022-08-11T03:58:19.084Z,11.82
2022-08-11T04:01:20.473Z,11.83
2022-08-11T04:04:29.480Z,11.82
2022-08-11T04:07:37.437Z,11.87
2022-08-11T04:10:33.294Z,11.93
2022-08-11T04:13:43.337Z,11.98
2022-08-11T04:16:24.680Z,12.02
2022-08-11T04:19:33.764Z,12.08
2022-08-11T04:22:35.275Z,12.15
2022-08-11T04:25:57.828Z,12.14
2022-08-11T04:29:01.148Z,12.20
2022-08-11T04:31:44.439Z,12.29
2022-08-11T04:34:58.528Z,12.37
2022-08-11T04:37:53.457Z,12.43
2022-08-11T04:40:51.344Z,12.51
2022-08-11T04:44:05.514Z,12.60
2022-08-11T04:46:58.833Z,12.69
2022-08-11T04:50:09.130Z,12.79
2022-08-11T04:53:39.928Z,12.92
2022-08-11T04:56:35.344Z,13.04
2022-08-11T04:59:49.797Z,13.14
2022-08-11T05:03:05.612Z,13.27
2022-08-11T05:05:57.206Z,13.45
2022-08-11T05:09:03.018Z,13.57
2022-08-11T05:12:01.989Z,13.76
2022-08-11T05:14:54.983Z,13.91
2022-08-11T05:17:46.518Z,14.08
2022-08-11T05:20:33.479Z,14.23
2022-08-11T05:23:24.323Z,14.35
2022-08-11T05:26:47.574Z,14.52
2022-08-11T05:29:44.719Z,14.72
2022-08-11T05:32:35.191Z,14.96
2022-08-11T05:35:07.654Z,15.18
2022-08-11T05:37:57.504Z,15.34
2022-08-11T05:40:51.101Z,15.61
2022-08-11T05:44:21.628Z,15.79
2022-08-11T05:46:58.302Z,16.13
2022-08-11T05:49:49.426Z,16.36
2022-08-11T05:52:41.753Z,16.53
2022-08-11T05:55:28.771Z,16.85
2022-08-11T05:58:00.897Z,17.20
2022-08-11T06:00:30.661Z,17.36
2022-08-11T06:03:07.570Z,17.69
2022-08-11T06:05:43.405Z,17.83
2022-08-11T06:08:14.360Z,17.92
2022-08-11T06:10:45.676Z,18.13
2022-08-11T06:13:18.172Z,18.23
2022-08-11T06:15:48.836Z,18.36
2022-08-11T06:18:19.753Z,18.54
2022-08-11T06:20:50.501Z,18.63
2022-08-11T06:23:24.018Z,18.84
2022-08-11T06:25:56.301Z,19.00
2022-08-11T06:28:32.735Z,19.08
2022-08-11T06:31:03.800Z,19.29
2022-08-11T06:33:39.893Z,19.35
2022-08-11T06:36:15.832Z,19.52
2022-08-11T06:38:55.206Z,19.66
2022-08-11T06:41:33.299Z,19.71
2022-08-11T06:44:10.693Z,19.88
2022-08-11T06:46:42.237Z,20.01
2022-08-11T06:49:28.785Z,20.06
2022-08-11T06:52:01.743Z,20.35
2022-08-11T06:54:35.469Z,20.62
2022-08-11T06:57:29.919Z,20.78
2022-08-11T07:00:17.868Z,20.97
2022-08-11T07:02:53.468Z,21.12
2022-08-11T07:05:28.809Z,21.32
2022-08-11T07:08:44.542Z,21.48
2022-08-11T07:11:46.095Z,21.60
2022-08-11T07:14:47.791Z,21.70
2022-08-11T07:17:21.209Z,21.92
2022-08-11T07:20:12.672Z,22.08
2022-08-11T07:23:02.238Z,22.10
2022-08-11T07:25:50.706Z,22.17
2022-08-11T07:28:43.166Z,22.25
2022-08-11T07:31:16.109Z,22.32
2022-08-11T07:34:08.454Z,22.40
2022-08-11T07:36:41.787Z,22.60
2022-08-11T07:39:18.992Z,22.76
2022-08-11T07:41:50.254Z,22.93
2022-08-11T07:44:19.637Z,23.02
2022-08-11T07:47:08.593Z,23.16
2022-08-11T07:49:56.349Z,23.38
2022-08-11T07:52:30.642Z,23.50
2022-08-11T07:55:03.202Z,23.64
2022-08-11T07:58:14.722Z,23.79
2022-08-11T08:01:01.068Z,23.90
2022-08-11T08:03:54.215Z,23.99
2022-08-11T08:06:42.078Z,23.96
2022-08-11T08:09:28.936Z,23.81
2022-08-11T08:12:19.475Z,24.03
2022-08-11T08:15:06.303Z,24.02
2022-08-11T08:18:25.412Z,23.88
2022-08-11T08:20:50.108Z,23.90
2022-08-11T08:23:33.892Z,23.97
2022-08-11T08:26:27.269Z,23.92
2022-08-11T08:29:20.537Z,23.78
2022-08-11T08:31:49.842Z,23.98
2022-08-11T08:34:20.480Z,24.29
2022-08-11T08:36:51.511Z,24.54
2022-08-11T08:39:21.949Z,24.84
2022-08-11T08:41:54.479Z,25.10
2022-08-11T08:44:43.552Z,25.49
2022-08-11T08:47:41.750Z,25.84
2022-08-11T08:50:09.879Z,25.80
2022-08-11T08:52:51.597Z,25.49
2022-08-11T08:55:22.347Z,25.13
2022-08-11T08:57:54.033Z,25.04
2022-08-11T09:00:24.319Z,25.32
2022-08-11T09:02:54.117Z,25.51
2022-08-11T09:05:26.150Z,25.49
2022-08-11T09:07:58.321Z,25.39
2022-08-11T09:10:30.547Z,25.32
2022-08-11T09:13:01.933Z,25.26
2022-08-11T09:15:32.244Z,25.44
2022-08-11T09:18:06.261Z,25.86
2022-08-11T09:20:37.467Z,25.91
2022-08-11T09:24:07.339Z,25.61
2022-08-11T09:26:34.859Z,25.13
2022-08-11T09:29:04.758Z,25.42
2022-08-11T09:31:39.608Z,25.63
2022-08-11T09:34:10.360Z,25.73
2022-08-11T09:36:58.815Z,25.62
2022-08-11T09:39:47.262Z,25.52
2022-08-11T09:42:23.558Z,25.43
2022-08-11T09:44:53.501Z,25.17
2022-08-11T09:47:26.351Z,25.15
2022-08-11T09:50:00.937Z,25.66
2022-08-11T09:52:33.568Z,26.37
2022-08-11T09:55:05.235Z,27.00
2022-08-11T09:57:51.362Z,27.32
2022-08-11T10:00:21.882Z,27.00
2022-08-11T10:02:54.775Z,26.61
2022-08-11T10:05:42.159Z,26.14
2022-08-11T10:08:17.218Z,25.60
2022-08-11T10:10:48.512Z,25.16
2022-08-11T10:14:31.090Z,24.80
2022-08-11T10:16:15.940Z,24.50
2022-08-11T10:18:53.507Z,24.27
2022-08-11T10:21:30.232Z,24.09
2022-08-11T10:24:19.376Z,23.80
2022-08-11T10:26:55.779Z,23.49
2022-08-11T10:29:49.820Z,23.26
2022-08-11T10:32:46.393Z,22.99
2022-08-11T10:35:31.126Z,22.74
2022-08-11T10:38:08.222Z,22.63
2022-08-11T10:40:41.390Z,22.44
2022-08-11T10:43:18.092Z,22.15
2022-08-11T10:46:30.167Z,21.97
2022-08-11T10:49:00.357Z,21.83
2022-08-11T10:51:52.133Z,21.74
2022-08-11T10:54:41.198Z,21.77
2022-08-11T10:57:28.398Z,22.00
2022-08-11T10:59:58.381Z,22.75
2022-08-11T11:02:28.848Z,23.46
2022-08-11T11:05:09.487Z,24.00
2022-08-11T11:07:44.795Z,24.00
2022-08-11T11:10:14.088Z,23.99
2022-08-11T11:13:03.399Z,24.16
2022-08-11T11:15:53.806Z,24.75
2022-08-11T11:18:25.385Z,25.42
2022-08-11T11:20:58.869Z,26.09
2022-08-11T11:23:35.367Z,26.08
2022-08-11T11:26:29.159Z,26.05
2022-08-11T11:29:28.321Z,26.10
2022-08-11T11:32:31.346Z,25.92
2022-08-11T11:35:19.484Z,25.65
2022-08-11T11:38:00.954Z,25.61
2022-08-11T11:40:37.653Z,25.47
2022-08-11T11:43:07.177Z,25.31
2022-08-11T11:45:37.673Z,25.04
2022-08-11T11:48:07.751Z,24.85
2022-08-11T11:50:39.412Z,24.72
2022-08-11T11:53:11.198Z,24.64
2022-08-11T11:55:44.375Z,24.56
2022-08-11T11:58:32.129Z,24.51
2022-08-11T12:01:20.297Z,24.48
2022-08-11T12:03:52.877Z,24.47
2022-08-11T12:06:25.490Z,24.59
2022-08-11T12:08:56.749Z,24.66
2022-08-11T12:11:45.843Z,24.83
2022-08-11T12:14:18.534Z,25.27
2022-08-11T12:16:49.020Z,25.80
2022-08-11T12:19:21.642Z,25.99
2022-08-11T12:22:08.781Z,26.05
2022-08-11T12:24:56.942Z,25.88
2022-08-11T12:27:33.566Z,26.05
2022-08-11T12:30:09.875Z,26.40
2022-08-11T12:32:41.360Z,26.67
2022-08-11T12:35:11.619Z,27.06
2022-08-11T12:37:43.818Z,27.11
2022-08-11T12:40:42.907Z,26.88
2022-08-11T12:43:56.696Z,26.49
2022-08-11T12:46:32.186Z,26.35
2022-08-11T12:49:24.839Z,26.88
2022-08-11T12:52:13.965Z,27.42
2022-08-11T12:54:52.382Z,27.83
2022-08-11T12:57:42.106Z,28.26
2022-08-11T13:00:31.300Z,28.50
2022-08-11T13:03:18.190Z,28.68
2022-08-11T13:05:49.927Z,28.71
2022-08-11T13:08:19.586Z,28.69
2022-08-11T13:11:08.644Z,28.80
2022-08-11T13:13:54.340Z,29.00
2022-08-11T13:16:30.615Z,29.22
2022-08-11T13:19:01.598Z,29.02
2022-08-11T13:21:31.398Z,28.56
2022-08-11T13:24:03.495Z,28.41
2022-08-11T13:26:43.363Z,28.29
2022-08-11T13:29:20.186Z,27.87
2022-08-11T13:31:51.178Z,27.20
2022-08-11T13:34:21.762Z,26.15
2022-08-11T13:36:53.339Z,24.94
2022-08-11T13:39:24.644Z,23.81
2022-08-11T13:42:03.656Z,22.66
2022-08-11T13:44:47.196Z,21.51
2022-08-11T13:47:18.315Z,21.02
2022-08-11T13:49:48.205Z,20.65
2022-08-11T13:52:18.066Z,20.45
2022-08-11T13:54:49.587Z,20.29
2022-08-11T13:58:08.981Z,20.29
2022-08-11T14:00:27.642Z,20.19
2022-08-11T14:02:59.755Z,20.10
2022-08-11T14:05:30.838Z,20.11
2022-08-11T14:08:03.573Z,20.04
2022-08-11T14:10:39.507Z,20.13
2022-08-11T14:13:42.290Z,20.23
2022-08-11T14:16:21.631Z,20.34
2022-08-11T14:18:56.401Z,20.28
2022-08-11T14:21:44.630Z,20.32
2022-08-11T14:24:13.940Z,20.45
2022-08-11T14:26:44.650Z,20.58
2022-08-11T14:29:15.751Z,20.80
2022-08-11T14:31:49.647Z,20.96
2022-08-11T14:34:22.705Z,21.02
2022-08-11T14:36:54.194Z,21.16
2022-08-11T14:39:26.035Z,21.26
2022-08-11T14:42:14.962Z,21.31
2022-08-11T14:45:18.556Z,21.59
2022-08-11T14:47:52.536Z,21.95
2022-08-11T14:50:24.964Z,22.28
2022-08-11T14:52:56.802Z,22.54
2022-08-11T14:55:46.215Z,22.74
2022-08-11T14:58:18.221Z,22.77
2022-08-11T15:00:48.108Z,22.72
2022-08-11T15:03:17.825Z,22.71
2022-08-11T15:05:54.211Z,22.55
2022-08-11T15:08:54.910Z,22.35
2022-08-11T15:11:43.731Z,22.11
2022-08-11T15:14:13.949Z,21.93
2022-08-11T15:17:02.759Z,21.79
2022-08-11T15:19:40.300Z,21.62
2022-08-11T15:22:29.292Z,21.52
2022-08-11T15:25:00.309Z,21.41
2022-08-11T15:27:49.993Z,21.30
2022-08-11T15:30:36.662Z,21.24
2022-08-11T15:33:25.860Z,21.21
2022-08-11T15:36:29.130Z,21.18
2022-08-11T15:39:02.692Z,21.27
2022-08-11T15:41:58.506Z,21.28
2022-08-11T15:45:06.049Z,21.27
2022-08-11T15:47:41.625Z,21.21
2022-08-11T15:50:16.032Z,21.24
2022-08-11T15:52:54.145Z,21.29
2022-08-11T15:55:27.299Z,21.35
2022-08-11T15:58:21.735Z,21.33
2022-08-11T16:01:13.132Z,21.26
2022-08-11T16:04:09.169Z,21.27
2022-08-11T16:06:47.819Z,21.28
2022-08-11T16:09:25.210Z,21.24
2022-08-11T16:12:03.215Z,21.21
2022-08-11T16:14:55.415Z,21.16
2022-08-11T16:17:30.732Z,21.04
2022-08-11T16:20:01.747Z,20.91
2022-08-11T16:22:38.442Z,20.77
2022-08-11T16:27:01.455Z,20.64
2022-08-11T16:28:13.985Z,20.43
2022-08-11T16:30:47.032Z,20.31
2022-08-11T16:33:47.947Z,20.18
2022-08-11T16:36:25.461Z,20.01
2022-08-11T16:38:57.867Z,19.95
2022-08-11T16:41:47.933Z,19.94
2022-08-11T16:44:38.289Z,19.91
2022-08-11T16:47:09.698Z,19.85
2022-08-11T16:49:50.612Z,19.88
2022-08-11T16:52:25.942Z,19.91
2022-08-11T16:54:55.204Z,19.92
2022-08-11T16:57:45.862Z,20.02
2022-08-11T17:00:19.655Z,20.18
2022-08-11T17:03:09.892Z,20.15
2022-08-11T17:06:02.150Z,20.10
2022-08-11T17:08:56.908Z,20.10
2022-08-11T17:11:46.685Z,20.04
2022-08-11T17:14:35.427Z,20.03
2022-08-11T17:17:12.841Z,19.90
2022-08-11T17:20:40.287Z,19.88
2022-08-11T17:22:59.889Z,19.79
2022-08-11T17:25:59.599Z,19.81
2022-08-11T17:28:24.435Z,19.84
2022-08-11T17:31:19.916Z,19.81
2022-08-11T17:34:11.540Z,19.77
2022-08-11T17:36:45.744Z,19.77
2022-08-11T17:39:16.783Z,19.70
2022-08-11T17:42:04.465Z,19.65
2022-08-11T17:44:53.707Z,19.61
2022-08-11T17:47:40.571Z,19.58
2022-08-11T17:50:17.008Z,19.56
2022-08-11T17:53:05.530Z,19.55
2022-08-11T17:55:54.961Z,19.53
2022-08-11T17:58:43.499Z,19.53
2022-08-11T18:01:13.180Z,19.50
2022-08-11T18:03:53.212Z,19.51
2022-08-11T18:06:34.513Z,19.48
2022-08-11T18:09:27.215Z,19.52
2022-08-11T18:12:16.369Z,19.50
2022-08-11T18:15:07.595Z,19.45
2022-08-11T18:17:54.616Z,19.42
2022-08-11T18:20:42.195Z,19.35
2022-08-11T18:23:46.342Z,19.28
2022-08-11T18:26:39.515Z,19.23
2022-08-11T18:29:27.636Z,19.17
2022-08-11T18:32:22.155Z,19.15
2022-08-11T18:35:13.900Z,19.06
2022-08-11T18:38:06.472Z,19.01
2022-08-11T18:40:56.329Z,18.99
2022-08-11T18:43:46.533Z,18.88
2022-08-11T18:46:36.998Z,18.84
2022-08-11T18:49:33.140Z,18.70
2022-08-11T18:52:36.569Z,18.62
2022-08-11T18:55:28.942Z,18.58
2022-08-11T18:58:21.925Z,18.53
2022-08-11T19:01:10.323Z,18.51
2022-08-11T19:03:56.976Z,18.48
2022-08-11T19:06:58.785Z,18.41
2022-08-11T19:09:47.507Z,18.39
2022-08-11T19:12:34.108Z,18.27
2022-08-11T19:15:23.785Z,18.17
2022-08-11T19:18:12.222Z,18.06
2022-08-11T19:21:01.510Z,18.04
2022-08-11T19:23:52.632Z,17.99
2022-08-11T19:26:40.288Z,17.99
2022-08-11T19:30:07.415Z,17.95
2022-08-11T19:32:35.605Z,17.91
2022-08-11T19:35:23.119Z,17.95
2022-08-11T19:38:11.274Z,18.04
2022-08-11T19:40:58.807Z,18.12
2022-08-11T19:43:49.409Z,18.14
2022-08-11T19:46:38.624Z,18.11
2022-08-11T19:49:28.418Z,18.18
2022-08-11T19:52:16.301Z,18.20
2022-08-11T19:55:03.409Z,18.24
2022-08-11T19:57:51.177Z,18.22
2022-08-11T20:00:40.249Z,18.24
2022-08-11T20:03:28.486Z,18.22
2022-08-11T20:06:19.480Z,18.16
2022-08-11T20:09:08.156Z,18.14
2022-08-11T20:11:58.537Z,18.15
2022-08-11T20:14:48.982Z,18.07
2022-08-11T20:17:36.572Z,18.02
2022-08-11T20:20:26.216Z,17.99
2022-08-11T20:23:18.341Z,17.94
2022-08-11T20:26:29.679Z,17.91
2022-08-11T20:29:14.608Z,17.85
2022-08-11T20:32:01.693Z,17.80
2022-08-11T20:34:55.177Z,17.77
2022-08-11T20:37:42.308Z,17.72
2022-08-11T20:40:30.853Z,17.70
2022-08-11T20:44:06.001Z,17.67
2022-08-11T20:46:25.829Z,17.53
2022-08-11T20:49:14.289Z,17.52
2022-08-11T20:52:06.003Z,17.48
2022-08-11T20:54:53.571Z,17.35
2022-08-11T20:58:03.797Z,17.30
2022-08-11T21:00:49.793Z,17.25
2022-08-11T21:03:52.303Z,17.19
2022-08-11T21:06:45.359Z,17.20
2022-08-11T21:09:58.806Z,17.24
2022-08-11T21:12:42.589Z,17.25
2022-08-11T21:15:47.069Z,17.27
2022-08-11T21:18:36.485Z,17.27
2022-08-11T21:21:26.628Z,17.29
2022-08-11T21:24:15.740Z,17.30
2022-08-11T21:27:05.420Z,17.27
2022-08-11T21:29:56.276Z,17.33
2022-08-11T21:32:45.182Z,17.34
2022-08-11T21:35:31.451Z,17.37
2022-08-11T21:38:20.307Z,17.40
2022-08-11T21:41:10.340Z,17.42
2022-08-11T21:43:59.378Z,17.43
2022-08-11T21:46:48.713Z,17.41
2022-08-11T21:49:37.285Z,17.40
2022-08-11T21:52:24.013Z,17.43
2022-08-11T21:55:12.309Z,17.42
2022-08-11T21:58:02.513Z,17.44
2022-08-11T22:00:49.216Z,17.47
2022-08-11T22:03:49.324Z,17.43
2022-08-11T22:06:37.655Z,17.48
2022-08-11T22:09:23.943Z,17.41
2022-08-11T22:12:35.196Z,17.49
2022-08-11T22:15:16.892Z,17.44
2022-08-11T22:18:03.605Z,17.47
2022-08-11T22:20:52.142Z,17.46
2022-08-11T22:23:39.750Z,17.44
2022-08-11T22:26:28.036Z,17.36
2022-08-11T22:29:14.508Z,17.25
2022-08-11T22:32:01.296Z,17.17
2022-08-11T22:34:53.409Z,17.13
2022-08-11T22:37:43.050Z,17.09
2022-08-11T22:40:30.705Z,17.08
2022-08-11T22:43:17.639Z,17.04
2022-08-11T22:46:04.212Z,17.05
2022-08-11T22:48:52.221Z,17.04
2022-08-11T22:51:40.000Z,16.97
2022-08-11T22:54:28.642Z,16.98
2022-08-11T22:57:18.498Z,16.97
2022-08-11T23:00:05.628Z,17.02
2022-08-11T23:02:55.154Z,17.07
2022-08-11T23:05:43.261Z,17.09
2022-08-11T23:08:29.940Z,17.11
2022-08-11T23:11:19.427Z,17.16
2022-08-11T23:14:06.895Z,17.20
2022-08-11T23:16:53.535Z,17.21
2022-08-11T23:20:01.593Z,17.23
2022-08-11T23:22:56.907Z,17.23
2022-08-11T23:25:46.087Z,17.24
2022-08-11T23:28:35.240Z,17.18
2022-08-11T23:31:23.146Z,17.11
2022-08-11T23:34:37.040Z,17.17
2022-08-11T23:37:22.533Z,17.14
2022-08-11T23:40:09.495Z,17.06
2022-08-11T23:42:56.375Z,16.98
2022-08-11T23:45:45.110Z,16.94
2022-08-11T23:48:34.451Z,16.99
2022-08-11T23:51:22.458Z,16.94
2022-08-11T23:54:09.217Z,16.95
2022-08-11T23:56:55.956Z,16.90
2022-08-11T23:59:43.330Z,16.88
